sensor_id;sensor_type;location;lat;lon;timestamp;pressure;altitude;pressure_sealevel;temperature;humidity
4705;BME280;2366;51.332;6.610;2023-04-07T00:00:24;101257.81;;;11.52;100.00
4705;BME280;2366;51.332;6.610;2023-04-07T00:02:50;101263.00;;;11.54;100.00
4705;BME280;2366;51.332;6.610;2023-04-07T00:05:16;101260.19;;;11.57;100.00
4705;BME280;2366;51.332;6.610;2023-04-07T00:07:41;101262.78;;;11.58;100.00
4705;BME280;2366;51.332;6.610;2023-04-07T00:10:07;101264.66;;;11.56;100.00
4705;BME280;2366;51.332;6.610;2023-04-07T00:12:33;101260.19;;;11.57;100.00
4705;BME280;2366;51.332;6.610;2023-04-07T00:14:58;101261.91;;;11.58;100.00
4705;BME280;2366;51.332;6.610;2023-04-07T00:17:23;101258.13;;;11.62;100.00
4705;BME280;2366;51.332;6.610;2023-04-07T00:19:49;101260.63;;;11.65;100.00
4705;BME280;2366;51.332;6.610;2023-04-07T00:22:14;101259.66;;;11.66;100.00
4705;BME280;2366;51.332;6.610;2023-04-07T00:24:40;101266.72;;;11.67;100.00
4705;BME280;2366;51.332;6.610;2023-04-07T00:27:05;101257.78;;;11.68;100.00
4705;BME280;2366;51.332;6.610;2023-04-07T00:29:30;101255.91;;;11.70;100.00
4705;BME280;2366;51.332;6.610;2023-04-07T00:31:56;101258.38;;;11.73;100.00
4705;BME280;2366;51.332;6.610;2023-04-07T00:34:21;101253.81;;;11.75;100.00
4705;BME280;2366;51.332;6.610;2023-04-07T00:36:47;101258.78;;;11.81;100.00
4705;BME280;2366;51.332;6.610;2023-04-07T00:39:19;101254.50;;;11.79;100.00
4705;BME280;2366;51.332;6.610;2023-04-07T00:41:46;101247.13;;;11.84;100.00
4705;BME280;2366;51.332;6.610;2023-04-07T00:44:12;101246.91;;;11.88;100.00
4705;BME280;2366;51.332;6.610;2023-04-07T00:46:37;101251.06;;;11.92;100.00
4705;BME280;2366;51.332;6.610;2023-04-07T00:49:03;101250.91;;;11.96;100.00
4705;BME280;2366;51.332;6.610;2023-04-07T00:51:28;101254.13;;;12.01;100.00
4705;BME280;2366;51.332;6.610;2023-04-07T00:53:55;101247.78;;;12.03;100.00
4705;BME280;2366;51.332;6.610;2023-04-07T00:56:21;101247.63;;;12.06;100.00
4705;BME280;2366;51.332;6.610;2023-04-07T00:58:46;101247.69;;;12.05;100.00
4705;BME280;2366;51.332;6.610;2023-04-07T01:03:48;101248.13;;;12.13;100.00
4705;BME280;2366;51.332;6.610;2023-04-07T01:06:17;101245.53;;;12.11;100.00
4705;BME280;2366;51.332;6.610;2023-04-07T01:11:36;101245.09;;;12.19;100.00
4705;BME280;2366;51.332;6.610;2023-04-07T01:14:05;101246.72;;;12.22;100.00
4705;BME280;2366;51.332;6.610;2023-04-07T01:16:34;101242.31;;;12.21;100.00
4705;BME280;2366;51.332;6.610;2023-04-07T01:21:37;101241.66;;;12.17;100.00
4705;BME280;2366;51.332;6.610;2023-04-07T01:26:36;101241.75;;;12.16;100.00
4705;BME280;2366;51.332;6.610;2023-04-07T01:29:33;101242.97;;;12.10;100.00
4705;BME280;2366;51.332;6.610;2023-04-07T01:32:01;101244.88;;;12.08;100.00
4705;BME280;2366;51.332;6.610;2023-04-07T01:34:30;101241.84;;;12.14;100.00
4705;BME280;2366;51.332;6.610;2023-04-07T01:36:57;101244.31;;;12.17;100.00
4705;BME280;2366;51.332;6.610;2023-04-07T01:39:25;101243.28;;;12.20;100.00
4705;BME280;2366;51.332;6.610;2023-04-07T01:41:51;101248.59;;;12.20;100.00
4705;BME280;2366;51.332;6.610;2023-04-07T01:44:19;101246.88;;;12.19;100.00
4705;BME280;2366;51.332;6.610;2023-04-07T01:46:45;101253.84;;;12.21;100.00
4705;BME280;2366;51.332;6.610;2023-04-07T01:49:11;101253.06;;;12.19;100.00
4705;BME280;2366;51.332;6.610;2023-04-07T01:51:38;101249.44;;;12.20;100.00
4705;BME280;2366;51.332;6.610;2023-04-07T01:54:04;101244.97;;;12.21;100.00
4705;BME280;2366;51.332;6.610;2023-04-07T01:56:29;101246.03;;;12.18;100.00
4705;BME280;2366;51.332;6.610;2023-04-07T01:58:55;101248.78;;;12.17;100.00
4705;BME280;2366;51.332;6.610;2023-04-07T02:01:20;101242.59;;;12.16;100.00
4705;BME280;2366;51.332;6.610;2023-04-07T02:03:53;101249.66;;;12.17;100.00
4705;BME280;2366;51.332;6.610;2023-04-07T02:06:26;101255.72;;;12.19;100.00
4705;BME280;2366;51.332;6.610;2023-04-07T02:08:56;101249.66;;;12.17;100.00
4705;BME280;2366;51.332;6.610;2023-04-07T02:11:23;101250.00;;;12.11;100.00
4705;BME280;2366;51.332;6.610;2023-04-07T02:13:52;101258.16;;;12.08;100.00
4705;BME280;2366;51.332;6.610;2023-04-07T02:16:19;101250.09;;;12.09;100.00
4705;BME280;2366;51.332;6.610;2023-04-07T02:18:45;101247.91;;;12.02;100.00
4705;BME280;2366;51.332;6.610;2023-04-07T02:21:12;101254.06;;;12.02;100.00
4705;BME280;2366;51.332;6.610;2023-04-07T02:23:39;101255.09;;;12.00;100.00
4705;BME280;2366;51.332;6.610;2023-04-07T02:26:04;101255.59;;;12.06;100.00
4705;BME280;2366;51.332;6.610;2023-04-07T02:28:30;101260.63;;;12.11;100.00
4705;BME280;2366;51.332;6.610;2023-04-07T02:30:55;101250.84;;;12.11;100.00
4705;BME280;2366;51.332;6.610;2023-04-07T02:33:21;101255.31;;;12.11;100.00
4705;BME280;2366;51.332;6.610;2023-04-07T02:35:46;101251.31;;;12.04;100.00
4705;BME280;2366;51.332;6.610;2023-04-07T02:38:11;101249.66;;;12.01;100.00
4705;BME280;2366;51.332;6.610;2023-04-07T02:40:37;101255.69;;;12.05;100.00
4705;BME280;2366;51.332;6.610;2023-04-07T02:43:02;101257.41;;;12.06;100.00
4705;BME280;2366;51.332;6.610;2023-04-07T02:45:29;101251.75;;;11.96;100.00
4705;BME280;2366;51.332;6.610;2023-04-07T02:47:55;101258.69;;;11.99;100.00
4705;BME280;2366;51.332;6.610;2023-04-07T02:50:20;101260.00;;;11.91;100.00
4705;BME280;2366;51.332;6.610;2023-04-07T02:52:46;101271.56;;;11.90;100.00
4705;BME280;2366;51.332;6.610;2023-04-07T02:55:11;101272.69;;;11.86;100.00
4705;BME280;2366;51.332;6.610;2023-04-07T02:57:36;101274.22;;;11.90;100.00
4705;BME280;2366;51.332;6.610;2023-04-07T03:00:03;101273.38;;;11.90;100.00
4705;BME280;2366;51.332;6.610;2023-04-07T03:02:28;101274.22;;;11.90;100.00
4705;BME280;2366;51.332;6.610;2023-04-07T03:04:54;101274.56;;;11.84;100.00
4705;BME280;2366;51.332;6.610;2023-04-07T03:07:20;101271.78;;;11.86;100.00
4705;BME280;2366;51.332;6.610;2023-04-07T03:09:45;101265.63;;;11.85;100.00
4705;BME280;2366;51.332;6.610;2023-04-07T03:12:10;101280.03;;;11.81;100.00
4705;BME280;2366;51.332;6.610;2023-04-07T03:14:36;101274.84;;;11.80;100.00
4705;BME280;2366;51.332;6.610;2023-04-07T03:17:02;101279.88;;;11.84;100.00
4705;BME280;2366;51.332;6.610;2023-04-07T03:19:27;101275.25;;;11.88;100.00
4705;BME280;2366;51.332;6.610;2023-04-07T03:21:53;101279.63;;;11.89;100.00
4705;BME280;2366;51.332;6.610;2023-04-07T03:24:18;101279.63;;;11.89;100.00
4705;BME280;2366;51.332;6.610;2023-04-07T03:26:44;101288.47;;;11.89;100.00
4705;BME280;2366;51.332;6.610;2023-04-07T03:29:09;101284.84;;;11.90;100.00
4705;BME280;2366;51.332;6.610;2023-04-07T03:31:35;101285.00;;;11.87;100.00
4705;BME280;2366;51.332;6.610;2023-04-07T03:34:02;101282.19;;;11.90;100.00
4705;BME280;2366;51.332;6.610;2023-04-07T03:36:27;101274.97;;;11.92;100.00
4705;BME280;2366;51.332;6.610;2023-04-07T03:38:52;101279.69;;;11.87;100.00
4705;BME280;2366;51.332;6.610;2023-04-07T03:41:18;101283.91;;;11.91;100.00
4705;BME280;2366;51.332;6.610;2023-04-07T03:43:43;101288.63;;;11.86;100.00
4705;BME280;2366;51.332;6.610;2023-04-07T03:46:09;101282.03;;;11.78;100.00
4705;BME280;2366;51.332;6.610;2023-04-07T03:48:34;101282.69;;;11.81;100.00
4705;BME280;2366;51.332;6.610;2023-04-07T03:50:59;101276.72;;;11.62;100.00
4705;BME280;2366;51.332;6.610;2023-04-07T03:53:25;101281.53;;;11.71;100.00
4705;BME280;2366;51.332;6.610;2023-04-07T03:55:51;101285.31;;;11.67;100.00
4705;BME280;2366;51.332;6.610;2023-04-07T03:58:16;101297.03;;;11.63;100.00
4705;BME280;2366;51.332;6.610;2023-04-07T04:00:42;101287.34;;;11.62;100.00
4705;BME280;2366;51.332;6.610;2023-04-07T04:03:07;101292.75;;;11.60;100.00
4705;BME280;2366;51.332;6.610;2023-04-07T04:05:33;101292.91;;;11.73;100.00
4705;BME280;2366;51.332;6.610;2023-04-07T04:07:58;101295.22;;;11.79;100.00
4705;BME280;2366;51.332;6.610;2023-04-07T04:10:23;101294.53;;;11.76;100.00
4705;BME280;2366;51.332;6.610;2023-04-07T04:12:49;101301.75;;;11.74;100.00
4705;BME280;2366;51.332;6.610;2023-04-07T04:15:15;101301.63;;;11.75;100.00
4705;BME280;2366;51.332;6.610;2023-04-07T04:17:40;101304.47;;;11.72;100.00
4705;BME280;2366;51.332;6.610;2023-04-07T04:20:06;101311.69;;;11.70;100.00
4705;BME280;2366;51.332;6.610;2023-04-07T04:22:32;101303.91;;;11.67;100.00
4705;BME280;2366;51.332;6.610;2023-04-07T04:24:58;101313.75;;;11.65;100.00
4705;BME280;2366;51.332;6.610;2023-04-07T04:27:23;101315.88;;;11.58;100.00
4705;BME280;2366;51.332;6.610;2023-04-07T04:29:49;101313.75;;;11.65;100.00
4705;BME280;2366;51.332;6.610;2023-04-07T04:32:14;101316.13;;;11.69;100.00
4705;BME280;2366;51.332;6.610;2023-04-07T04:34:40;101316.91;;;11.56;100.00
4705;BME280;2366;51.332;6.610;2023-04-07T04:37:06;101328.28;;;11.58;100.00
4705;BME280;2366;51.332;6.610;2023-04-07T04:39:32;101325.03;;;11.52;100.00
4705;BME280;2366;51.332;6.610;2023-04-07T04:41:57;101327.88;;;11.49;100.00
4705;BME280;2366;51.332;6.610;2023-04-07T04:44:23;101327.63;;;11.54;100.00
4705;BME280;2366;51.332;6.610;2023-04-07T04:46:48;101336.63;;;11.51;100.00
4705;BME280;2366;51.332;6.610;2023-04-07T04:49:13;101334.13;;;11.48;100.00
4705;BME280;2366;51.332;6.610;2023-04-07T04:51:40;101331.91;;;11.57;100.00
4705;BME280;2366;51.332;6.610;2023-04-07T04:54:06;101331.06;;;11.56;100.00
4705;BME280;2366;51.332;6.610;2023-04-07T04:56:31;101336.38;;;11.56;100.00
4705;BME280;2366;51.332;6.610;2023-04-07T04:58:57;101334.56;;;11.57;100.00
4705;BME280;2366;51.332;6.610;2023-04-07T05:01:22;101338.25;;;11.54;100.00
4705;BME280;2366;51.332;6.610;2023-04-07T05:03:48;101336.44;;;11.55;100.00
4705;BME280;2366;51.332;6.610;2023-04-07T05:06:14;101338.13;;;11.56;100.00
4705;BME280;2366;51.332;6.610;2023-04-07T05:08:39;101345.19;;;11.57;100.00
4705;BME280;2366;51.332;6.610;2023-04-07T05:11:05;101349.38;;;11.61;100.00
4705;BME280;2366;51.332;6.610;2023-04-07T05:13:30;101348.75;;;11.56;100.00
4705;BME280;2366;51.332;6.610;2023-04-07T05:15:56;101347.00;;;11.56;100.00
4705;BME280;2366;51.332;6.610;2023-04-07T05:18:21;101350.66;;;11.54;100.00
4705;BME280;2366;51.332;6.610;2023-04-07T05:20:48;101342.88;;;11.50;100.00
4705;BME280;2366;51.332;6.610;2023-04-07T05:23:14;101341.94;;;11.51;100.00
4705;BME280;2366;51.332;6.610;2023-04-07T05:25:39;101347.25;;;11.51;100.00
4705;BME280;2366;51.332;6.610;2023-04-07T05:28:05;101352.72;;;11.48;100.00
4705;BME280;2366;51.332;6.610;2023-04-07T05:30:30;101358.19;;;11.45;100.00
4705;BME280;2366;51.332;6.610;2023-04-07T05:32:55;101350.81;;;11.50;100.00
4705;BME280;2366;51.332;6.610;2023-04-07T05:35:21;101359.97;;;11.45;100.00
4705;BME280;2366;51.332;6.610;2023-04-07T05:37:46;101361.50;;;11.33;100.00
4705;BME280;2366;51.332;6.610;2023-04-07T05:40:12;101364.41;;;11.28;100.00
4705;BME280;2366;51.332;6.610;2023-04-07T05:42:37;101361.78;;;11.44;100.00
4705;BME280;2366;51.332;6.610;2023-04-07T05:45:03;101363.31;;;11.48;100.00
4705;BME280;2366;51.332;6.610;2023-04-07T05:47:29;101365.22;;;11.46;100.00
4705;BME280;2366;51.332;6.610;2023-04-07T05:49:54;101360.94;;;11.44;100.00
4705;BME280;2366;51.332;6.610;2023-04-07T05:52:20;101365.38;;;11.43;100.00
4705;BME280;2366;51.332;6.610;2023-04-07T05:54:47;101365.38;;;11.43;100.00
4705;BME280;2366;51.332;6.610;2023-04-07T05:57:12;101375.84;;;11.46;100.00
4705;BME280;2366;51.332;6.610;2023-04-07T05:59:37;101373.03;;;11.49;100.00
4705;BME280;2366;51.332;6.610;2023-04-07T06:02:03;101369.75;;;11.44;100.00
4705;BME280;2366;51.332;6.610;2023-04-07T06:04:28;101381.13;;;11.46;100.00
4705;BME280;2366;51.332;6.610;2023-04-07T06:06:54;101373.88;;;11.50;100.00
4705;BME280;2366;51.332;6.610;2023-04-07T06:09:21;101385.59;;;11.46;100.00
4705;BME280;2366;51.332;6.610;2023-04-07T06:11:46;101391.94;;;11.43;100.00
4705;BME280;2366;51.332;6.610;2023-04-07T06:14:12;101390.00;;;11.63;100.00
4705;BME280;2366;51.332;6.610;2023-04-07T06:16:37;101385.97;;;11.71;100.00
4705;BME280;2366;51.332;6.610;2023-04-07T06:19:03;101389.22;;;11.61;100.00
4705;BME280;2366;51.332;6.610;2023-04-07T06:21:29;101393.84;;;11.57;100.00
4705;BME280;2366;51.332;6.610;2023-04-07T06:23:54;101398.41;;;11.71;100.00
4705;BME280;2366;51.332;6.610;2023-04-07T06:26:20;101400.38;;;11.67;100.00
4705;BME280;2366;51.332;6.610;2023-04-07T06:28:46;101406.25;;;11.57;100.00
4705;BME280;2366;51.332;6.610;2023-04-07T06:31:11;101406.97;;;11.60;100.00
4705;BME280;2366;51.332;6.610;2023-04-07T06:33:37;101405.16;;;11.77;100.00
4705;BME280;2366;51.332;6.610;2023-04-07T06:36:02;101410.84;;;11.86;100.00
4705;BME280;2366;51.332;6.610;2023-04-07T06:38:27;101414.72;;;11.97;100.00
4705;BME280;2366;51.332;6.610;2023-04-07T06:40:53;101407.94;;;12.07;100.00
4705;BME280;2366;51.332;6.610;2023-04-07T06:43:18;101413.25;;;12.07;100.00
4705;BME280;2366;51.332;6.610;2023-04-07T06:45:44;101410.41;;;12.10;100.00
4705;BME280;2366;51.332;6.610;2023-04-07T06:48:09;101415.81;;;11.92;100.00
4705;BME280;2366;51.332;6.610;2023-04-07T06:50:35;101423.44;;;11.99;100.00
4705;BME280;2366;51.332;6.610;2023-04-07T06:53:02;101428.66;;;12.16;100.00
4705;BME280;2366;51.332;6.610;2023-04-07T06:55:27;101430.41;;;12.17;100.00
4705;BME280;2366;51.332;6.610;2023-04-07T06:57:53;101423.00;;;12.22;100.00
4705;BME280;2366;51.332;6.610;2023-04-07T07:00:18;101427.97;;;12.28;100.00
4705;BME280;2366;51.332;6.610;2023-04-07T07:02:44;101431.41;;;12.30;100.00
4705;BME280;2366;51.332;6.610;2023-04-07T07:05:09;101435.97;;;12.28;100.00
4705;BME280;2366;51.332;6.610;2023-04-07T07:07:36;101439.56;;;12.11;100.00
4705;BME280;2366;51.332;6.610;2023-04-07T07:10:01;101435.72;;;12.17;100.00
4705;BME280;2366;51.332;6.610;2023-04-07T07:12:27;101436.72;;;12.30;100.00
4705;BME280;2366;51.332;6.610;2023-04-07T07:14:52;101445.56;;;12.31;100.00
4705;BME280;2366;51.332;6.610;2023-04-07T07:17:17;101443.94;;;12.28;100.00
4705;BME280;2366;51.332;6.610;2023-04-07T07:19:43;101442.56;;;12.37;100.00
4705;BME280;2366;51.332;6.610;2023-04-07T07:22:08;101446.22;;;12.50;100.00
4705;BME280;2366;51.332;6.610;2023-04-07T07:24:33;101439.59;;;12.58;100.00
4705;BME280;2366;51.332;6.610;2023-04-07T07:26:59;101450.75;;;12.64;100.00
4705;BME280;2366;51.332;6.610;2023-04-07T07:29:26;101447.72;;;12.70;100.00
4705;BME280;2366;51.332;6.610;2023-04-07T07:31:51;101450.00;;;12.77;100.00
4705;BME280;2366;51.332;6.610;2023-04-07T07:34:17;101450.44;;;12.85;100.00
4705;BME280;2366;51.332;6.610;2023-04-07T07:36:42;101452.75;;;12.75;100.00
4705;BME280;2366;51.332;6.610;2023-04-07T07:39:07;101454.91;;;12.68;100.00
4705;BME280;2366;51.332;6.610;2023-04-07T07:41:33;101455.16;;;12.80;100.00
4705;BME280;2366;51.332;6.610;2023-04-07T07:43:58;101466.25;;;12.72;100.00
4705;BME280;2366;51.332;6.610;2023-04-07T07:46:25;101460.50;;;12.80;100.00
4705;BME280;2366;51.332;6.610;2023-04-07T07:48:51;101458.69;;;12.94;100.00
4705;BME280;2366;51.332;6.610;2023-04-07T07:51:16;101467.28;;;13.00;100.00
4705;BME280;2366;51.332;6.610;2023-04-07T07:53:45;101456.50;;;12.87;100.00
4705;BME280;2366;51.332;6.610;2023-04-07T07:56:10;101468.91;;;13.02;100.00
4705;BME280;2366;51.332;6.610;2023-04-07T07:58:36;101467.22;;;13.01;100.00
4705;BME280;2366;51.332;6.610;2023-04-07T08:01:02;101473.31;;;13.18;100.00
4705;BME280;2366;51.332;6.610;2023-04-07T08:03:27;101467.81;;;13.21;100.00
4705;BME280;2366;51.332;6.610;2023-04-07T08:05:52;101475.25;;;13.44;100.00
4705;BME280;2366;51.332;6.610;2023-04-07T08:08:18;101476.16;;;13.45;99.34
4705;BME280;2366;51.332;6.610;2023-04-07T08:10:43;101479.81;;;13.42;100.00
4705;BME280;2366;51.332;6.610;2023-04-07T08:13:09;101486.50;;;13.49;100.00
4705;BME280;2366;51.332;6.610;2023-04-07T08:15:34;101481.38;;;13.61;100.00
4705;BME280;2366;51.332;6.610;2023-04-07T08:18:00;101484.44;;;13.69;100.00
4705;BME280;2366;51.332;6.610;2023-04-07T08:20:28;101491.28;;;13.59;100.00
4705;BME280;2366;51.332;6.610;2023-04-07T08:22:54;101484.91;;;13.47;100.00
4705;BME280;2366;51.332;6.610;2023-04-07T08:25:19;101494.31;;;13.67;100.00
4705;BME280;2366;51.332;6.610;2023-04-07T08:27:45;101484.81;;;13.77;100.00
4705;BME280;2366;51.332;6.610;2023-04-07T08:30:10;101493.84;;;13.60;100.00
4705;BME280;2366;51.332;6.610;2023-04-07T08:32:37;101490.13;;;13.63;100.00
4705;BME280;2366;51.332;6.610;2023-04-07T08:35:03;101495.91;;;13.55;100.00
4705;BME280;2366;51.332;6.610;2023-04-07T08:37:30;101506.84;;;13.50;100.00
4705;BME280;2366;51.332;6.610;2023-04-07T08:39:55;101506.97;;;13.49;100.00
4705;BME280;2366;51.332;6.610;2023-04-07T08:42:26;101508.28;;;13.42;100.00
4705;BME280;2366;51.332;6.610;2023-04-07T08:44:53;101511.53;;;13.47;100.00
4705;BME280;2366;51.332;6.610;2023-04-07T08:47:21;101513.63;;;13.56;100.00
4705;BME280;2366;51.332;6.610;2023-04-07T08:49:51;101522.25;;;13.31;99.38
4705;BME280;2366;51.332;6.610;2023-04-07T08:52:21;101518.66;;;13.46;100.00
4705;BME280;2366;51.332;6.610;2023-04-07T08:54:48;101513.63;;;13.56;100.00
4705;BME280;2366;51.332;6.610;2023-04-07T08:57:14;101528.19;;;13.65;100.00
4705;BME280;2366;51.332;6.610;2023-04-07T08:59:41;101531.44;;;13.55;99.00
4705;BME280;2366;51.332;6.610;2023-04-07T09:02:09;101526.28;;;13.52;100.00
4705;BME280;2366;51.332;6.610;2023-04-07T09:04:35;101529.13;;;13.49;100.00
4705;BME280;2366;51.332;6.610;2023-04-07T09:07:01;101531.41;;;13.70;100.00
4705;BME280;2366;51.332;6.610;2023-04-07T09:09:27;101526.88;;;13.86;100.00
4705;BME280;2366;51.332;6.610;2023-04-07T09:11:52;101528.34;;;14.19;100.00
4705;BME280;2366;51.332;6.610;2023-04-07T09:14:17;101525.41;;;14.24;100.00
4705;BME280;2366;51.332;6.610;2023-04-07T09:16:45;101532.16;;;14.29;100.00
4705;BME280;2366;51.332;6.610;2023-04-07T09:19:11;101536.13;;;14.51;100.00
4705;BME280;2366;51.332;6.610;2023-04-07T09:21:47;101538.31;;;14.58;100.00
4705;BME280;2366;51.332;6.610;2023-04-07T09:24:23;101532.31;;;14.41;99.51
4705;BME280;2366;51.332;6.610;2023-04-07T09:26:48;101535.75;;;14.43;100.00
4705;BME280;2366;51.332;6.610;2023-04-07T09:29:19;101545.28;;;14.32;100.00
4705;BME280;2366;51.332;6.610;2023-04-07T09:31:49;101538.81;;;14.36;100.00
4705;BME280;2366;51.332;6.610;2023-04-07T09:34:30;101541.53;;;14.49;99.23
4705;BME280;2366;51.332;6.610;2023-04-07T09:36:56;101535.34;;;14.49;99.75
4705;BME280;2366;51.332;6.610;2023-04-07T09:39:22;101535.72;;;14.57;100.00
4705;BME280;2366;51.332;6.610;2023-04-07T09:41:49;101539.41;;;14.54;99.63
4705;BME280;2366;51.332;6.610;2023-04-07T09:44:15;101539.69;;;14.23;99.96
4705;BME280;2366;51.332;6.610;2023-04-07T09:46:51;101540.44;;;14.25;98.83
4705;BME280;2366;51.332;6.610;2023-04-07T09:49:17;101542.84;;;14.29;99.29
4705;BME280;2366;51.332;6.610;2023-04-07T09:52:03;101535.22;;;14.09;98.32
4705;BME280;2366;51.332;6.610;2023-04-07T09:54:36;101547.34;;;14.42;99.73
4705;BME280;2366;51.332;6.610;2023-04-07T09:57:09;101550.63;;;14.32;97.17
4705;BME280;2366;51.332;6.610;2023-04-07T09:59:37;101555.97;;;14.74;100.00
4705;BME280;2366;51.332;6.610;2023-04-07T10:02:04;101550.53;;;14.75;98.19
4705;BME280;2366;51.332;6.610;2023-04-07T10:04:30;101556.88;;;14.46;96.57
4705;BME280;2366;51.332;6.610;2023-04-07T10:06:57;101552.56;;;13.73;93.70
4705;BME280;2366;51.332;6.610;2023-04-07T10:09:24;101550.25;;;13.38;94.04
4705;BME280;2366;51.332;6.610;2023-04-07T10:11:50;101554.09;;;13.77;97.09
4705;BME280;2366;51.332;6.610;2023-04-07T10:14:17;101560.09;;;13.95;98.45
4705;BME280;2366;51.332;6.610;2023-04-07T10:16:45;101566.66;;;14.04;97.76
4705;BME280;2366;51.332;6.610;2023-04-07T10:19:11;101565.59;;;14.06;99.83
4705;BME280;2366;51.332;6.610;2023-04-07T10:21:39;101557.22;;;13.98;98.43
4705;BME280;2366;51.332;6.610;2023-04-07T10:26:40;101572.56;;;14.09;99.98
4705;BME280;2366;51.332;6.610;2023-04-07T10:29:09;101564.75;;;14.06;99.69
4705;BME280;2366;51.332;6.610;2023-04-07T10:31:36;101568.56;;;14.02;98.91
4705;BME280;2366;51.332;6.610;2023-04-07T10:34:03;101571.81;;;13.92;96.11
4705;BME280;2366;51.332;6.610;2023-04-07T10:36:30;101574.00;;;14.14;100.00
4705;BME280;2366;51.332;6.610;2023-04-07T10:44:07;101579.97;;;14.18;97.48
4705;BME280;2366;51.332;6.610;2023-04-07T10:47:02;101586.44;;;13.85;96.04
4705;BME280;2366;51.332;6.610;2023-04-07T10:49:34;101584.53;;;14.30;96.53
4705;BME280;2366;51.332;6.610;2023-04-07T10:54:38;101584.88;;;14.53;100.00
4705;BME280;2366;51.332;6.610;2023-04-07T10:57:09;101591.22;;;14.23;91.02
4705;BME280;2366;51.332;6.610;2023-04-07T10:59:38;101595.13;;;14.03;96.91
4705;BME280;2366;51.332;6.610;2023-04-07T11:04:40;101590.44;;;13.78;95.39
4705;BME280;2366;51.332;6.610;2023-04-07T11:07:07;101596.03;;;13.59;93.74
4705;BME280;2366;51.332;6.610;2023-04-07T11:09:32;101592.22;;;13.49;94.62
4705;BME280;2366;51.332;6.610;2023-04-07T11:11:58;101605.97;;;13.86;99.05
4705;BME280;2366;51.332;6.610;2023-04-07T11:14:33;101597.31;;;13.96;97.20
4705;BME280;2366;51.332;6.610;2023-04-07T11:17:02;101598.06;;;13.84;94.02
4705;BME280;2366;51.332;6.610;2023-04-07T11:19:28;101597.09;;;12.94;96.58
4705;BME280;2366;51.332;6.610;2023-04-07T11:22:23;101603.41;;;12.78;92.53
4705;BME280;2366;51.332;6.610;2023-04-07T11:24:49;101604.94;;;12.66;91.49
4705;BME280;2366;51.332;6.610;2023-04-07T11:27:15;101601.03;;;13.19;85.14
4705;BME280;2366;51.332;6.610;2023-04-07T11:29:41;101606.41;;;13.64;84.77
4705;BME280;2366;51.332;6.610;2023-04-07T11:32:06;101604.06;;;13.88;77.14
4705;BME280;2366;51.332;6.610;2023-04-07T11:34:33;101603.66;;;13.65;76.81
4705;BME280;2366;51.332;6.610;2023-04-07T11:37:23;101612.81;;;14.33;73.28
4705;BME280;2366;51.332;6.610;2023-04-07T11:39:53;101606.03;;;14.70;73.63
4705;BME280;2366;51.332;6.610;2023-04-07T11:42:35;101605.09;;;14.57;70.21
4705;BME280;2366;51.332;6.610;2023-04-07T11:45:01;101605.84;;;14.73;70.02
4705;BME280;2366;51.332;6.610;2023-04-07T11:47:38;101608.81;;;14.96;68.76
4705;BME280;2366;51.332;6.610;2023-04-07T11:50:04;101612.84;;;14.89;66.67
4705;BME280;2366;51.332;6.610;2023-04-07T11:52:42;101622.13;;;15.10;68.11
4705;BME280;2366;51.332;6.610;2023-04-07T11:55:18;101617.03;;;15.33;68.95
4705;BME280;2366;51.332;6.610;2023-04-07T11:57:46;101623.72;;;15.40;68.76
4705;BME280;2366;51.332;6.610;2023-04-07T12:00:12;101622.06;;;15.37;68.43
4705;BME280;2366;51.332;6.610;2023-04-07T12:02:38;101623.47;;;15.30;67.70
4705;BME280;2366;51.332;6.610;2023-04-07T12:05:05;101623.81;;;15.11;67.94
4705;BME280;2366;51.332;6.610;2023-04-07T12:07:30;101623.38;;;15.05;67.45
4705;BME280;2366;51.332;6.610;2023-04-07T12:09:56;101622.91;;;14.98;67.70
4705;BME280;2366;51.332;6.610;2023-04-07T12:12:26;101627.63;;;14.94;67.34
4705;BME280;2366;51.332;6.610;2023-04-07T12:14:54;101626.16;;;15.03;67.98
4705;BME280;2366;51.332;6.610;2023-04-07T12:17:25;101635.94;;;14.90;66.41
4705;BME280;2366;51.332;6.610;2023-04-07T12:19:51;101640.16;;;14.79;66.64
4705;BME280;2366;51.332;6.610;2023-04-07T12:22:16;101635.81;;;14.91;66.41
4705;BME280;2366;51.332;6.610;2023-04-07T12:24:45;101646.25;;;14.67;65.22
4705;BME280;2366;51.332;6.610;2023-04-07T12:27:10;101647.03;;;14.55;65.48
4705;BME280;2366;51.332;6.610;2023-04-07T12:29:36;101650.09;;;14.49;65.71
4705;BME280;2366;51.332;6.610;2023-04-07T12:32:03;101643.91;;;14.34;66.51
4705;BME280;2366;51.332;6.610;2023-04-07T12:34:28;101653.50;;;14.08;66.87
4705;BME280;2366;51.332;6.610;2023-04-07T12:36:54;101648.38;;;14.33;66.93
4705;BME280;2366;51.332;6.610;2023-04-07T12:39:19;101655.88;;;14.70;66.55
4705;BME280;2366;51.332;6.610;2023-04-07T12:41:45;101647.13;;;14.68;66.14
4705;BME280;2366;51.332;6.610;2023-04-07T12:44:12;101652.44;;;14.82;65.75
4705;BME280;2366;51.332;6.610;2023-04-07T12:46:38;101659.19;;;14.88;65.64
4705;BME280;2366;51.332;6.610;2023-04-07T12:49:03;101660.06;;;14.88;65.47
4705;BME280;2366;51.332;6.610;2023-04-07T12:51:29;101660.75;;;14.77;65.35
4705;BME280;2366;51.332;6.610;2023-04-07T12:53:55;101663.81;;;14.57;64.46
4705;BME280;2366;51.332;6.610;2023-04-07T12:56:21;101668.47;;;14.68;65.45
4705;BME280;2366;51.332;6.610;2023-04-07T12:58:47;101664.25;;;14.92;65.71
4705;BME280;2366;51.332;6.610;2023-04-07T13:01:12;101661.88;;;15.15;65.33
4705;BME280;2366;51.332;6.610;2023-04-07T13:03:38;101665.25;;;15.31;64.82
4705;BME280;2366;51.332;6.610;2023-04-07T13:06:04;101662.63;;;15.44;64.67
4705;BME280;2366;51.332;6.610;2023-04-07T13:08:30;101655.91;;;15.24;63.33
4705;BME280;2366;51.332;6.610;2023-04-07T13:10:56;101664.31;;;15.05;61.88
4705;BME280;2366;51.332;6.610;2023-04-07T13:13:22;101670.66;;;14.90;64.18
4705;BME280;2366;51.332;6.610;2023-04-07T13:15:47;101664.56;;;15.00;64.16
4705;BME280;2366;51.332;6.610;2023-04-07T13:18:13;101663.13;;;15.09;64.05
4705;BME280;2366;51.332;6.610;2023-04-07T13:20:38;101655.69;;;15.14;63.85
4705;BME280;2366;51.332;6.610;2023-04-07T13:23:03;101664.91;;;15.23;63.97